createdAt,value
2018-06-13T00:01:27.995Z,0.50
2018-06-13T00:03:57.320Z,0.60
2018-06-13T00:06:26.481Z,0.50
2018-06-13T00:08:55.719Z,0.60
2018-06-13T00:11:24.984Z,0.40
2018-06-13T00:13:54.184Z,0.43
2018-06-13T00:16:23.383Z,0.50
2018-06-13T00:18:52.572Z,0.63
2018-06-13T00:21:21.880Z,0.50
2018-06-13T00:23:51.075Z,0.40
2018-06-13T00:26:20.351Z,0.40
2018-06-13T00:28:49.624Z,0.50
2018-06-13T00:31:18.958Z,0.50
2018-06-13T00:33:48.219Z,0.50
2018-06-13T00:36:17.421Z,0.47
2018-06-13T00:38:46.615Z,0.40
2018-06-13T00:41:15.922Z,0.40
2018-06-13T00:43:45.117Z,0.50
2018-06-13T00:46:14.297Z,0.50
2018-06-13T00:48:43.465Z,0.80
2018-06-13T00:51:13.585Z,0.43
2018-06-13T00:53:42.788Z,0.70
2018-06-13T00:56:23.010Z,0.50
2018-06-13T00:58:52.240Z,0.60
2018-06-13T01:01:21.441Z,0.40
2018-06-13T01:03:50.630Z,0.40
2018-06-13T01:06:19.904Z,0.50
2018-06-13T01:08:49.077Z,0.50
2018-06-13T01:11:18.401Z,0.50
2018-06-13T01:13:47.573Z,0.60
2018-06-13T01:16:16.772Z,0.50
2018-06-13T01:18:46.025Z,0.77
2018-06-13T01:21:15.220Z,0.47
2018-06-13T01:23:44.428Z,0.60
2018-06-13T01:26:13.619Z,0.53
2018-06-13T01:28:42.792Z,0.60
2018-06-13T01:31:12.200Z,0.60
2018-06-13T01:33:41.394Z,0.67
2018-06-13T01:36:10.584Z,0.50
2018-06-13T01:38:39.781Z,0.47
2018-06-13T01:41:09.044Z,0.50
2018-06-13T01:43:37.747Z,0.53
2018-06-13T01:46:06.981Z,0.50
2018-06-13T01:48:36.204Z,0.60
2018-06-13T01:51:05.393Z,0.60
2018-06-13T01:53:34.588Z,0.60
2018-06-13T01:56:04.144Z,0.60
2018-06-13T01:58:33.344Z,0.57
2018-06-13T02:01:02.599Z,0.60
2018-06-13T02:03:31.841Z,0.63
2018-06-13T02:06:00.992Z,0.50
2018-06-13T02:08:30.197Z,0.70
2018-06-13T02:10:59.389Z,0.50
2018-06-13T02:13:28.580Z,0.43
2018-06-13T02:15:57.806Z,0.50
2018-06-13T02:18:27.030Z,0.40
2018-06-13T02:20:56.284Z,0.30
2018-06-13T02:23:25.495Z,0.47
2018-06-13T02:25:54.683Z,0.47
2018-06-13T02:28:23.898Z,0.60
2018-06-13T02:30:53.173Z,0.70
2018-06-13T02:33:22.372Z,0.60
2018-06-13T02:35:51.616Z,0.60
2018-06-13T02:38:20.876Z,0.50
2018-06-13T02:40:50.071Z,0.60
2018-06-13T02:43:19.274Z,0.40
2018-06-13T02:45:48.442Z,0.50
2018-06-13T02:48:17.667Z,0.40
2018-06-13T02:50:46.869Z,0.60
2018-06-13T02:53:16.065Z,0.50
2018-06-13T02:55:45.232Z,0.33
2018-06-13T02:58:14.399Z,0.40
2018-06-13T03:00:43.907Z,0.50
2018-06-13T03:03:13.106Z,0.37
2018-06-13T03:05:42.283Z,0.40
2018-06-13T03:08:11.532Z,0.40
2018-06-13T03:10:40.748Z,0.50
2018-06-13T03:13:09.948Z,0.40
2018-06-13T03:15:39.128Z,0.50
2018-06-13T03:18:08.325Z,0.40
2018-06-13T03:20:37.604Z,0.43
2018-06-13T03:23:06.821Z,0.40
2018-06-13T03:25:36.010Z,0.43
2018-06-13T03:28:05.209Z,0.40
2018-06-13T03:30:34.437Z,0.40
2018-06-13T03:33:04.051Z,0.50
2018-06-13T03:35:33.240Z,0.43
2018-06-13T03:38:02.441Z,0.53
2018-06-13T03:40:31.754Z,0.37
2018-06-13T03:43:00.988Z,0.30
2018-06-13T03:45:30.189Z,0.37
2018-06-13T03:47:59.394Z,0.50
2018-06-13T03:50:28.684Z,0.47
2018-06-13T03:52:57.941Z,0.33
2018-06-13T03:55:27.179Z,0.40
2018-06-13T03:57:56.407Z,0.50
2018-06-13T04:00:25.669Z,0.50
2018-06-13T04:02:54.835Z,0.60
2018-06-13T04:05:24.118Z,0.33
2018-06-13T04:07:53.302Z,0.40
2018-06-13T04:10:22.534Z,0.40
2018-06-13T04:12:51.731Z,0.60
2018-06-13T04:15:20.930Z,0.50
2018-06-13T04:17:51.197Z,0.40
2018-06-13T04:20:20.480Z,0.80
2018-06-13T04:22:49.656Z,0.50
2018-06-13T04:25:18.888Z,0.57
2018-06-13T04:27:48.047Z,0.70
2018-06-13T04:30:17.242Z,1.00
2018-06-13T04:32:46.433Z,1.43
2018-06-13T04:35:15.633Z,1.60
2018-06-13T04:37:45.194Z,2.13
2018-06-13T04:40:14.370Z,2.20
2018-06-13T04:42:43.556Z,2.20
2018-06-13T04:45:12.209Z,2.70
2018-06-13T04:47:41.396Z,2.80
2018-06-13T04:50:10.591Z,2.70
2018-06-13T04:52:39.774Z,2.60
2018-06-13T04:55:08.992Z,2.20
2018-06-13T04:57:38.231Z,2.77
2018-06-13T05:00:07.517Z,2.03
2018-06-13T05:02:36.795Z,2.30
2018-06-13T05:05:06.129Z,2.43
2018-06-13T05:07:35.464Z,2.37
2018-06-13T05:10:05.079Z,2.10
2018-06-13T05:12:34.367Z,1.80
2018-06-13T05:15:03.647Z,1.87
2018-06-13T05:17:32.940Z,2.17
2018-06-13T05:20:02.128Z,1.70
2018-06-13T05:22:31.402Z,1.80
2018-06-13T05:25:00.598Z,1.77
2018-06-13T05:27:29.800Z,1.80
2018-06-13T05:29:58.993Z,1.80
2018-06-13T05:32:28.292Z,2.00
2018-06-13T05:34:57.528Z,2.00
2018-06-13T05:37:26.730Z,1.77
2018-06-13T05:39:55.966Z,1.97
2018-06-13T05:42:25.228Z,2.10
2018-06-13T05:44:54.499Z,2.70
2018-06-13T05:47:23.709Z,2.10
2018-06-13T05:49:52.904Z,1.90
2018-06-13T05:52:22.153Z,1.77
2018-06-13T05:54:51.359Z,1.90
2018-06-13T05:57:20.590Z,1.70
2018-06-13T05:59:49.810Z,1.70
2018-06-13T06:02:19.174Z,1.73
2018-06-13T06:04:48.408Z,2.00
2018-06-13T06:07:17.615Z,1.70
2018-06-13T06:09:46.815Z,1.70
2018-06-13T06:12:16.174Z,1.93
2018-06-13T06:14:45.752Z,2.30
2018-06-13T06:17:14.988Z,1.73
2018-06-13T06:19:44.213Z,2.03
2018-06-13T06:22:13.560Z,2.07
2018-06-13T06:24:42.808Z,1.87
2018-06-13T06:27:12.034Z,1.70
2018-06-13T06:29:41.212Z,2.30
2018-06-13T06:32:10.550Z,2.40
2018-06-13T06:34:39.852Z,2.30
2018-06-13T06:37:09.081Z,2.13
2018-06-13T06:39:38.311Z,2.30
2018-06-13T06:42:07.800Z,1.97
2018-06-13T06:44:37.037Z,2.30
2018-06-13T06:47:05.847Z,1.73
2018-06-13T06:49:35.072Z,2.03
2018-06-13T06:52:04.310Z,2.13
2018-06-13T06:54:32.991Z,2.30
2018-06-13T06:57:02.185Z,2.60
2018-06-13T06:59:31.404Z,2.23
2018-06-13T07:02:00.104Z,2.40
2018-06-13T07:04:29.316Z,2.33
2018-06-13T07:06:58.557Z,2.30
2018-06-13T07:09:27.766Z,2.40
2018-06-13T07:11:57.152Z,2.67
2018-06-13T07:14:26.425Z,2.10
2018-06-13T07:16:55.672Z,2.50
2018-06-13T07:19:25.652Z,2.20
2018-06-13T07:21:54.920Z,2.47
2018-06-13T07:24:24.152Z,2.60
2018-06-13T07:26:53.378Z,2.50
2018-06-13T07:29:22.611Z,2.30
2018-06-13T07:31:51.911Z,2.57
2018-06-13T07:34:21.111Z,2.40
2018-06-13T07:36:50.330Z,2.57
2018-06-13T07:39:19.544Z,2.70
2018-06-13T07:41:48.815Z,2.50
2018-06-13T07:44:18.056Z,2.53
2018-06-13T07:46:47.272Z,2.60
2018-06-13T07:49:16.457Z,2.40
2018-06-13T07:51:45.941Z,2.50
2018-06-13T07:54:15.137Z,2.40
2018-06-13T07:56:44.448Z,2.77
2018-06-13T07:59:13.661Z,2.40
2018-06-13T08:01:42.894Z,2.40
2018-06-13T08:04:12.104Z,2.40
2018-06-13T08:06:40.768Z,2.57
2018-06-13T08:09:10.021Z,2.60
2018-06-13T08:11:39.339Z,2.50
2018-06-13T08:14:08.544Z,2.63
2018-06-13T08:16:37.851Z,2.53
2018-06-13T08:19:07.053Z,2.40
2018-06-13T08:21:36.391Z,2.70
2018-06-13T08:24:06.096Z,2.23
2018-06-13T08:26:35.322Z,2.90
2018-06-13T08:29:04.529Z,2.50
2018-06-13T08:31:33.792Z,2.53
2018-06-13T08:34:02.998Z,2.80
2018-06-13T08:36:32.232Z,2.73
2018-06-13T08:39:01.420Z,2.73
2018-06-13T08:41:30.685Z,2.57
2018-06-13T08:43:59.949Z,2.50
2018-06-13T08:46:29.159Z,2.33
2018-06-13T08:48:58.381Z,2.57
2018-06-13T08:51:27.608Z,2.90
2018-06-13T08:53:57.325Z,2.67
2018-06-13T08:56:26.728Z,2.80
2018-06-13T08:58:55.924Z,2.53
2018-06-13T09:01:25.257Z,2.60
2018-06-13T09:03:54.605Z,2.93
2018-06-13T09:06:23.267Z,2.90
2018-06-13T09:08:52.452Z,2.63
2018-06-13T09:11:21.744Z,2.57
2018-06-13T09:13:50.948Z,2.63
2018-06-13T09:16:20.204Z,2.60
2018-06-13T09:18:49.409Z,2.43
2018-06-13T09:21:18.643Z,2.60
2018-06-13T09:23:47.847Z,2.70
2018-06-13T09:26:17.028Z,2.53
2018-06-13T09:28:46.580Z,2.97
2018-06-13T09:31:15.956Z,2.70
2018-06-13T09:33:45.143Z,2.87
2018-06-13T09:36:14.345Z,2.70
2018-06-13T09:38:43.704Z,2.60
2018-06-13T09:41:12.958Z,3.30
2018-06-13T09:43:42.172Z,3.37
2018-06-13T09:46:12.144Z,3.37
2018-06-13T09:48:41.000Z,3.10
2018-06-13T09:51:11.474Z,3.17
2018-06-13T09:53:40.736Z,3.70
2018-06-13T09:56:10.028Z,3.43
2018-06-13T09:58:44.430Z,3.17
2018-06-13T10:01:19.725Z,3.57
2018-06-13T10:03:49.024Z,6.97
2018-06-13T10:06:18.306Z,9.67
2018-06-13T10:08:47.592Z,9.67
2018-06-13T10:11:16.930Z,7.43
2018-06-13T10:13:46.141Z,8.17
2018-06-13T10:16:15.408Z,7.70
2018-06-13T10:18:44.730Z,6.83
2018-06-13T10:21:14.109Z,6.80
2018-06-13T10:23:43.328Z,7.30
2018-06-13T10:26:13.142Z,6.20
2018-06-13T10:28:42.416Z,6.87
2018-06-13T10:31:11.690Z,6.30
2018-06-13T10:33:41.014Z,5.97
2018-06-13T10:36:10.283Z,6.77
2018-06-13T10:38:39.513Z,6.60
2018-06-13T10:41:08.889Z,6.80
2018-06-13T10:43:38.117Z,6.60
2018-06-13T10:46:07.389Z,7.00
2018-06-13T10:48:36.616Z,5.90
2018-06-13T10:51:05.945Z,6.17
2018-06-13T10:53:35.212Z,6.50
2018-06-13T10:56:04.485Z,6.10
2018-06-13T10:58:33.934Z,6.70
2018-06-13T11:01:05.333Z,6.77
2018-06-13T11:03:35.118Z,6.53
2018-06-13T11:06:04.672Z,6.07
2018-06-13T11:08:34.489Z,6.90
2018-06-13T11:11:03.889Z,6.70
2018-06-13T11:13:33.220Z,6.60
2018-06-13T11:16:02.552Z,6.23
2018-06-13T11:18:31.833Z,6.90
2018-06-13T11:21:01.294Z,6.13
2018-06-13T11:23:30.661Z,6.40
2018-06-13T11:25:59.949Z,6.10
2018-06-13T11:28:29.232Z,7.97
2018-06-13T11:30:58.536Z,6.60
2018-06-13T11:33:27.845Z,6.27
2018-06-13T11:35:57.179Z,6.40
2018-06-13T11:38:26.546Z,6.33
2018-06-13T11:40:55.939Z,6.77
2018-06-13T11:43:25.249Z,6.60
2018-06-13T11:45:54.507Z,6.43
2018-06-13T11:48:23.764Z,6.37
2018-06-13T11:50:54.161Z,6.53
2018-06-13T11:53:25.626Z,5.80
2018-06-13T11:55:54.414Z,7.07
2018-06-13T11:58:23.156Z,6.57
2018-06-13T12:00:52.473Z,6.63
2018-06-13T12:03:22.784Z,7.07
2018-06-13T12:05:58.481Z,7.13
2018-06-13T12:08:28.698Z,7.03
2018-06-13T12:10:58.308Z,6.77
2018-06-13T12:13:27.742Z,7.07
2018-06-13T12:15:57.032Z,7.03
2018-06-13T12:18:26.329Z,6.43
2018-06-13T12:20:55.669Z,6.67
2018-06-13T12:23:24.915Z,6.30
2018-06-13T12:25:54.177Z,6.70
2018-06-13T12:28:23.442Z,6.33
2018-06-13T12:30:52.805Z,6.30
2018-06-13T12:33:22.040Z,6.80
2018-06-13T12:35:51.417Z,6.57
2018-06-13T12:38:20.668Z,6.67
2018-06-13T12:40:49.939Z,6.80
2018-06-13T12:43:19.144Z,6.80
2018-06-13T12:45:48.380Z,6.90
2018-06-13T12:48:17.603Z,7.00
2018-06-13T12:50:46.993Z,7.10
2018-06-13T12:53:16.197Z,7.03
2018-06-13T12:55:45.395Z,6.20
2018-06-13T12:58:14.605Z,6.60
2018-06-13T13:00:45.073Z,6.80
2018-06-13T13:03:14.288Z,6.47
2018-06-13T13:05:43.498Z,6.03
2018-06-13T13:08:12.717Z,6.97
2018-06-13T13:10:42.172Z,6.87
2018-06-13T13:13:11.629Z,6.47
2018-06-13T13:15:40.929Z,5.67
2018-06-13T13:18:10.226Z,5.83
2018-06-13T13:20:39.473Z,6.17
2018-06-13T13:23:08.742Z,7.63
2018-06-13T13:25:37.973Z,5.90
2018-06-13T13:28:07.197Z,5.90
2018-06-13T13:30:36.491Z,5.63
2018-06-13T13:33:05.825Z,5.50
2018-06-13T13:35:35.114Z,5.90
2018-06-13T13:38:04.419Z,6.37
2018-06-13T13:40:33.669Z,6.13
2018-06-13T13:43:03.204Z,5.70
2018-06-13T13:45:32.568Z,5.67
2018-06-13T13:48:01.823Z,5.77
2018-06-13T13:50:31.069Z,6.03
2018-06-13T13:53:00.310Z,6.10
2018-06-13T13:55:29.552Z,5.73
2018-06-13T13:57:59.027Z,5.60
2018-06-13T14:00:28.298Z,5.43
2018-06-13T14:02:57.538Z,6.17
2018-06-13T14:05:27.128Z,5.77
2018-06-13T14:07:56.378Z,5.87
2018-06-13T14:10:25.678Z,5.87
2018-06-13T14:12:54.949Z,5.37
2018-06-13T14:15:24.249Z,6.13
2018-06-13T14:17:53.515Z,5.83
2018-06-13T14:20:22.784Z,5.60
2018-06-13T14:22:52.050Z,5.30
2018-06-13T14:25:21.325Z,5.50
2018-06-13T14:27:50.543Z,5.23
2018-06-13T14:30:19.909Z,5.43
2018-06-13T14:32:49.149Z,5.33
2018-06-13T14:35:18.385Z,5.63
2018-06-13T14:37:48.008Z,5.53
2018-06-13T14:40:17.296Z,5.60
2018-06-13T14:42:46.525Z,5.40
2018-06-13T14:45:15.782Z,5.37
2018-06-13T14:47:45.409Z,5.33
2018-06-13T14:50:14.691Z,5.47
2018-06-13T14:52:43.888Z,5.70
2018-06-13T14:55:13.136Z,5.30
2018-06-13T14:57:42.339Z,5.83
2018-06-13T15:00:11.613Z,5.00
2018-06-13T15:02:40.842Z,5.40
2018-06-13T15:05:10.116Z,5.77
2018-06-13T15:07:39.368Z,6.20
2018-06-13T15:10:08.581Z,5.30
2018-06-13T15:12:37.901Z,5.50
2018-06-13T15:15:07.144Z,5.27
2018-06-13T15:17:36.384Z,5.70
2018-06-13T15:20:05.713Z,5.70
2018-06-13T15:22:34.939Z,5.40
2018-06-13T15:25:04.207Z,6.03
2018-06-13T15:27:33.397Z,5.67
2018-06-13T15:30:02.607Z,5.63
2018-06-13T15:32:31.932Z,5.30
2018-06-13T15:35:01.124Z,5.20
2018-06-13T15:37:30.333Z,5.57
2018-06-13T15:39:59.040Z,5.70
2018-06-13T15:42:28.356Z,5.63
2018-06-13T15:44:57.558Z,5.43
2018-06-13T15:47:26.757Z,6.00
2018-06-13T15:49:55.953Z,5.83
2018-06-13T15:52:25.289Z,6.20
2018-06-13T15:54:54.484Z,6.20
2018-06-13T15:57:23.168Z,5.93
2018-06-13T15:59:52.369Z,6.30
2018-06-13T16:02:21.598Z,5.93
2018-06-13T16:04:50.788Z,5.77
2018-06-13T16:07:19.993Z,6.07
2018-06-13T16:09:49.183Z,5.17
2018-06-13T16:12:18.425Z,5.60
2018-06-13T16:14:47.694Z,5.93
2018-06-13T16:17:16.933Z,6.37
2018-06-13T16:19:46.224Z,6.13
2018-06-13T16:22:15.525Z,6.30
2018-06-13T16:24:45.185Z,6.60
2018-06-13T16:27:14.396Z,5.90
2018-06-13T16:29:43.593Z,5.87
2018-06-13T16:32:12.791Z,5.87
2018-06-13T16:34:42.028Z,6.00
2018-06-13T16:37:11.330Z,5.90
2018-06-13T16:39:40.567Z,6.10
2018-06-13T16:42:09.776Z,5.70
2018-06-13T16:44:38.976Z,5.67
2018-06-13T16:47:08.225Z,5.67
2018-06-13T16:49:37.456Z,6.00
2018-06-13T16:52:17.507Z,5.90
2018-06-13T16:55:23.595Z,5.90
2018-06-13T16:57:53.075Z,6.00
2018-06-13T17:00:23.085Z,5.60
2018-06-13T17:02:52.592Z,6.00
2018-06-13T17:05:21.772Z,6.17
2018-06-13T17:07:50.980Z,5.87
2018-06-13T17:10:20.225Z,5.70
2018-06-13T17:12:49.672Z,6.33
2018-06-13T17:15:18.865Z,6.40
2018-06-13T17:17:48.182Z,5.77
2018-06-13T17:20:17.484Z,7.77
2018-06-13T17:22:46.693Z,15.50
2018-06-13T17:25:16.035Z,15.00
2018-06-13T17:27:45.277Z,15.90
2018-06-13T17:30:14.548Z,17.47
2018-06-13T17:32:43.803Z,21.57
2018-06-13T17:35:13.024Z,22.60
2018-06-13T17:37:42.308Z,21.00
2018-06-13T17:40:11.520Z,20.40
2018-06-13T17:42:40.783Z,19.50
2018-06-13T17:45:10.801Z,18.57
2018-06-13T17:47:40.616Z,17.97
2018-06-13T17:50:10.566Z,18.70
2018-06-13T17:52:40.161Z,17.00
2018-06-13T17:55:10.032Z,17.53
2018-06-13T17:57:40.042Z,17.27
2018-06-13T18:00:09.289Z,16.43
2018-06-13T18:02:38.515Z,16.20
2018-06-13T18:05:07.801Z,15.13
2018-06-13T18:07:41.836Z,15.70
2018-06-13T18:10:11.940Z,14.93
2018-06-13T18:12:41.296Z,14.63
2018-06-13T18:15:10.820Z,14.93
2018-06-13T18:17:40.341Z,13.77
2018-06-13T18:20:09.826Z,14.20
2018-06-13T18:22:39.358Z,13.10
2018-06-13T18:25:09.495Z,13.73
2018-06-13T18:27:39.103Z,13.67
2018-06-13T18:30:08.999Z,13.03
2018-06-13T18:32:38.691Z,12.97
2018-06-13T18:35:08.254Z,12.13
2018-06-13T18:37:37.819Z,12.27
2018-06-13T18:40:07.426Z,11.93
2018-06-13T18:42:37.016Z,12.17
2018-06-13T18:45:06.652Z,12.23
2018-06-13T18:47:36.219Z,12.60
2018-06-13T18:50:06.075Z,12.20
2018-06-13T18:52:35.895Z,11.70
2018-06-13T18:55:05.544Z,11.87
2018-06-13T18:57:35.224Z,12.40
2018-06-13T19:00:05.461Z,12.03
2018-06-13T19:02:35.147Z,11.03
2018-06-13T19:05:04.728Z,10.90
2018-06-13T19:07:34.470Z,11.03
2018-06-13T19:10:03.958Z,10.90
2018-06-13T19:12:33.685Z,11.50
2018-06-13T19:15:03.334Z,11.17
2018-06-13T19:17:32.788Z,10.67
2018-06-13T19:20:02.185Z,10.83
2018-06-13T19:22:31.680Z,11.30
2018-06-13T19:25:01.194Z,10.60
2018-06-13T19:27:30.626Z,11.00
2018-06-13T19:30:00.296Z,10.57
2018-06-13T19:32:29.976Z,11.07
2018-06-13T19:34:59.397Z,11.13
2018-06-13T19:37:30.414Z,9.87
2018-06-13T19:39:59.948Z,10.33
2018-06-13T19:42:29.729Z,10.83
2018-06-13T19:44:59.481Z,10.80
2018-06-13T19:47:33.417Z,10.13
2018-06-13T19:50:02.964Z,10.37
2018-06-13T19:53:39.026Z,10.17
2018-06-13T19:56:09.758Z,10.67
2018-06-13T19:58:40.049Z,10.57
2018-06-13T20:01:09.323Z,9.90
2018-06-13T20:03:43.671Z,9.77
2018-06-13T20:06:13.228Z,10.37
2018-06-13T20:08:42.446Z,9.97
2018-06-13T20:11:11.887Z,9.27
2018-06-13T20:13:46.270Z,9.03
2018-06-13T20:16:24.854Z,9.43
2018-06-13T20:18:59.210Z,9.90
2018-06-13T20:21:28.601Z,10.00
2018-06-13T20:23:57.963Z,9.00
2018-06-13T20:26:32.420Z,9.53
2018-06-13T20:29:06.764Z,9.73
2018-06-13T20:31:37.472Z,9.07
2018-06-13T20:34:06.770Z,9.30
2018-06-13T20:36:36.424Z,9.10
2018-06-13T20:39:08.114Z,9.27
2018-06-13T20:41:37.507Z,9.40
2018-06-13T20:44:06.720Z,8.53
2018-06-13T20:46:36.008Z,8.63
2018-06-13T20:49:05.644Z,9.33
2018-06-13T20:51:34.873Z,9.53
2018-06-13T20:54:04.091Z,9.00
2018-06-13T20:56:33.309Z,9.00
2018-06-13T20:59:02.608Z,9.07
2018-06-13T21:01:31.854Z,8.00
2018-06-13T21:04:01.082Z,8.90
2018-06-13T21:06:30.348Z,9.13
2018-06-13T21:08:59.548Z,8.53
2018-06-13T21:11:28.912Z,8.70
2018-06-13T21:13:58.146Z,8.53
2018-06-13T21:16:27.342Z,8.90
2018-06-13T21:18:56.544Z,8.33
2018-06-13T21:21:25.915Z,8.43
2018-06-13T21:23:55.213Z,8.33
2018-06-13T21:26:24.500Z,8.23
2018-06-13T21:28:53.766Z,8.20
2018-06-13T21:31:23.206Z,8.33
2018-06-13T21:33:52.616Z,8.13
2018-06-13T21:36:21.881Z,8.17
2018-06-13T21:38:51.493Z,7.70
2018-06-13T21:41:20.844Z,7.93
2018-06-13T21:43:50.119Z,7.73
2018-06-13T21:46:19.411Z,7.93
2018-06-13T21:48:48.696Z,7.73
2018-06-13T21:51:18.037Z,7.73
2018-06-13T21:53:47.304Z,7.97
2018-06-13T21:56:16.561Z,7.40
2018-06-13T21:58:45.842Z,8.00
2018-06-13T22:01:15.248Z,7.47
2018-06-13T22:03:44.561Z,7.27
2018-06-13T22:06:13.759Z,7.67
2018-06-13T22:08:42.999Z,7.47
2018-06-13T22:11:12.701Z,7.23
2018-06-13T22:13:41.871Z,7.10
2018-06-13T22:16:11.097Z,7.53
2018-06-13T22:18:40.324Z,7.83
2018-06-13T22:21:09.623Z,7.43
2018-06-13T22:23:38.825Z,7.77
2018-06-13T22:26:08.020Z,7.00
2018-06-13T22:28:37.227Z,7.10
2018-06-13T22:31:06.464Z,6.83
2018-06-13T22:33:35.644Z,7.00
2018-06-13T22:36:04.885Z,7.30
2018-06-13T22:38:34.117Z,6.80
2018-06-13T22:41:03.345Z,7.07
2018-06-13T22:43:32.717Z,7.27
2018-06-13T22:46:01.948Z,6.87
2018-06-13T22:48:31.181Z,6.53
2018-06-13T22:51:00.509Z,7.40
2018-06-13T22:53:29.734Z,6.53
2018-06-13T22:55:58.936Z,6.37
2018-06-13T22:58:28.128Z,6.87
2018-06-13T23:01:02.945Z,6.73
2018-06-13T23:03:32.857Z,6.70
2018-06-13T23:06:09.446Z,6.60
2018-06-13T23:08:39.266Z,6.67
2018-06-13T23:11:08.506Z,6.27
2018-06-13T23:13:37.767Z,6.10
2018-06-13T23:16:06.971Z,6.47
2018-06-13T23:18:36.189Z,6.73
2018-06-13T23:21:05.464Z,6.43
2018-06-13T23:23:34.678Z,6.53
2018-06-13T23:26:03.853Z,6.30
2018-06-13T23:28:33.048Z,6.37
2018-06-13T23:31:02.260Z,7.17
2018-06-13T23:33:31.457Z,6.40
2018-06-13T23:36:00.648Z,5.77
2018-06-13T23:38:29.893Z,6.37
2018-06-13T23:40:59.193Z,5.93
2018-06-13T23:43:28.420Z,6.00
2018-06-13T23:45:58.203Z,6.27
2018-06-13T23:48:27.433Z,5.87
2018-06-13T23:50:56.624Z,5.73
2018-06-13T23:53:25.829Z,6.10
2018-06-13T23:55:55.026Z,6.17
2018-06-13T23:58:24.198Z,5.53
